sensor_id;sensor_type;location;lat;lon;timestamp;temperature;humidity
10296;DHT22;5193;51.032;6.356;2022-09-25T00:00:43;12.90;99.90
10296;DHT22;5193;51.032;6.356;2022-09-25T00:03:13;12.90;99.90
10296;DHT22;5193;51.032;6.356;2022-09-25T00:05:41;12.90;99.90
10296;DHT22;5193;51.032;6.356;2022-09-25T00:08:08;12.90;99.90
10296;DHT22;5193;51.032;6.356;2022-09-25T00:10:38;12.90;99.90
10296;DHT22;5193;51.032;6.356;2022-09-25T00:13:04;12.80;99.90
10296;DHT22;5193;51.032;6.356;2022-09-25T00:15:30;12.80;99.90
10296;DHT22;5193;51.032;6.356;2022-09-25T00:17:56;12.80;99.90
10296;DHT22;5193;51.032;6.356;2022-09-25T00:20:21;12.80;99.90
10296;DHT22;5193;51.032;6.356;2022-09-25T00:22:49;12.80;99.90
10296;DHT22;5193;51.032;6.356;2022-09-25T00:25:15;12.80;99.90
10296;DHT22;5193;51.032;6.356;2022-09-25T00:27:42;12.80;99.90
10296;DHT22;5193;51.032;6.356;2022-09-25T00:30:12;12.70;99.90
10296;DHT22;5193;51.032;6.356;2022-09-25T00:32:37;12.80;99.90
10296;DHT22;5193;51.032;6.356;2022-09-25T00:35:03;12.70;99.90
10296;DHT22;5193;51.032;6.356;2022-09-25T00:37:32;12.70;99.90
10296;DHT22;5193;51.032;6.356;2022-09-25T00:39:58;12.70;99.90
10296;DHT22;5193;51.032;6.356;2022-09-25T00:42:23;12.60;99.90
10296;DHT22;5193;51.032;6.356;2022-09-25T00:44:58;12.60;99.90
10296;DHT22;5193;51.032;6.356;2022-09-25T00:50:02;12.60;99.90
10296;DHT22;5193;51.032;6.356;2022-09-25T00:52:28;12.60;99.90
10296;DHT22;5193;51.032;6.356;2022-09-25T00:54:58;12.60;99.90
10296;DHT22;5193;51.032;6.356;2022-09-25T00:57:28;12.60;99.90
10296;DHT22;5193;51.032;6.356;2022-09-25T01:00:15;12.50;99.90
10296;DHT22;5193;51.032;6.356;2022-09-25T01:02:43;12.50;99.90
10296;DHT22;5193;51.032;6.356;2022-09-25T01:05:15;12.50;99.90
10296;DHT22;5193;51.032;6.356;2022-09-25T01:07:44;12.40;99.90
10296;DHT22;5193;51.032;6.356;2022-09-25T01:10:10;12.50;99.90
10296;DHT22;5193;51.032;6.356;2022-09-25T01:12:39;12.50;99.90
10296;DHT22;5193;51.032;6.356;2022-09-25T01:15:07;12.50;99.90
10296;DHT22;5193;51.032;6.356;2022-09-25T01:35:16;12.30;99.90
10296;DHT22;5193;51.032;6.356;2022-09-25T01:42:52;12.30;99.90
10296;DHT22;5193;51.032;6.356;2022-09-25T01:45:26;12.30;99.90
10296;DHT22;5193;51.032;6.356;2022-09-25T01:47:56;12.30;99.90
10296;DHT22;5193;51.032;6.356;2022-09-25T01:50:27;12.30;99.90
10296;DHT22;5193;51.032;6.356;2022-09-25T01:52:56;12.30;99.90
10296;DHT22;5193;51.032;6.356;2022-09-25T01:55:33;12.30;99.90
10296;DHT22;5193;51.032;6.356;2022-09-25T01:58:23;12.30;99.90
10296;DHT22;5193;51.032;6.356;2022-09-25T02:00:56;12.30;99.90
10296;DHT22;5193;51.032;6.356;2022-09-25T02:03:28;12.30;99.90
10296;DHT22;5193;51.032;6.356;2022-09-25T02:06:00;12.30;99.90
10296;DHT22;5193;51.032;6.356;2022-09-25T02:08:39;12.30;99.90
10296;DHT22;5193;51.032;6.356;2022-09-25T02:11:06;12.30;99.90
10296;DHT22;5193;51.032;6.356;2022-09-25T02:13:57;12.20;99.90
10296;DHT22;5193;51.032;6.356;2022-09-25T02:16:35;12.20;99.90
10296;DHT22;5193;51.032;6.356;2022-09-25T02:19:03;12.20;99.90
10296;DHT22;5193;51.032;6.356;2022-09-25T02:22:09;12.30;99.90
10296;DHT22;5193;51.032;6.356;2022-09-25T02:25:08;12.20;99.90
10296;DHT22;5193;51.032;6.356;2022-09-25T02:27:36;12.20;99.90
10296;DHT22;5193;51.032;6.356;2022-09-25T02:30:02;12.20;99.90
10296;DHT22;5193;51.032;6.356;2022-09-25T02:32:30;12.20;99.90
10296;DHT22;5193;51.032;6.356;2022-09-25T02:34:56;12.20;99.90
10296;DHT22;5193;51.032;6.356;2022-09-25T02:37:22;12.10;99.90
10296;DHT22;5193;51.032;6.356;2022-09-25T02:39:51;12.10;99.90
10296;DHT22;5193;51.032;6.356;2022-09-25T02:48:37;12.10;99.90
10296;DHT22;5193;51.032;6.356;2022-09-25T02:51:16;12.10;99.90
10296;DHT22;5193;51.032;6.356;2022-09-25T02:56:32;12.10;99.90
10296;DHT22;5193;51.032;6.356;2022-09-25T02:59:02;12.10;99.90
10296;DHT22;5193;51.032;6.356;2022-09-25T03:01:32;12.10;99.90
10296;DHT22;5193;51.032;6.356;2022-09-25T03:04:00;12.10;99.90
10296;DHT22;5193;51.032;6.356;2022-09-25T03:06:26;12.10;99.90
10296;DHT22;5193;51.032;6.356;2022-09-25T03:08:54;12.10;99.90
10296;DHT22;5193;51.032;6.356;2022-09-25T03:11:21;12.10;99.90
10296;DHT22;5193;51.032;6.356;2022-09-25T03:19:10;12.10;99.90
10296;DHT22;5193;51.032;6.356;2022-09-25T03:21:36;12.00;99.90
10296;DHT22;5193;51.032;6.356;2022-09-25T03:24:02;12.10;99.90
10296;DHT22;5193;51.032;6.356;2022-09-25T03:26:27;12.10;99.90
10296;DHT22;5193;51.032;6.356;2022-09-25T03:28:54;12.10;99.90
10296;DHT22;5193;51.032;6.356;2022-09-25T03:31:19;12.10;99.90
10296;DHT22;5193;51.032;6.356;2022-09-25T03:33:45;12.10;99.90
10296;DHT22;5193;51.032;6.356;2022-09-25T03:36:17;12.10;99.90
10296;DHT22;5193;51.032;6.356;2022-09-25T03:38:44;12.00;99.90
10296;DHT22;5193;51.032;6.356;2022-09-25T03:41:11;12.00;99.90
10296;DHT22;5193;51.032;6.356;2022-09-25T03:43:39;12.00;99.90
10296;DHT22;5193;51.032;6.356;2022-09-25T03:46:07;12.00;99.90
10296;DHT22;5193;51.032;6.356;2022-09-25T03:48:34;12.00;99.90
10296;DHT22;5193;51.032;6.356;2022-09-25T03:51:00;12.00;99.90
10296;DHT22;5193;51.032;6.356;2022-09-25T03:53:28;12.00;99.90
10296;DHT22;5193;51.032;6.356;2022-09-25T03:56:02;12.00;99.90
10296;DHT22;5193;51.032;6.356;2022-09-25T03:58:28;11.90;99.90
10296;DHT22;5193;51.032;6.356;2022-09-25T04:00:55;11.90;99.90
10296;DHT22;5193;51.032;6.356;2022-09-25T04:03:22;12.00;99.90
10296;DHT22;5193;51.032;6.356;2022-09-25T04:05:48;11.90;99.90
10296;DHT22;5193;51.032;6.356;2022-09-25T04:08:15;11.90;99.90
10296;DHT22;5193;51.032;6.356;2022-09-25T04:10:40;11.90;99.90
10296;DHT22;5193;51.032;6.356;2022-09-25T04:13:07;11.80;99.90
10296;DHT22;5193;51.032;6.356;2022-09-25T04:15:38;11.90;99.90
10296;DHT22;5193;51.032;6.356;2022-09-25T04:18:05;11.80;99.90
10296;DHT22;5193;51.032;6.356;2022-09-25T04:20:31;11.80;99.90
10296;DHT22;5193;51.032;6.356;2022-09-25T04:22:56;11.80;99.90
10296;DHT22;5193;51.032;6.356;2022-09-25T04:25:22;11.80;99.90
10296;DHT22;5193;51.032;6.356;2022-09-25T04:27:55;11.70;99.90
10296;DHT22;5193;51.032;6.356;2022-09-25T04:30:25;11.80;99.90
10296;DHT22;5193;51.032;6.356;2022-09-25T04:32:52;11.80;99.90
10296;DHT22;5193;51.032;6.356;2022-09-25T04:35:36;11.70;99.90
10296;DHT22;5193;51.032;6.356;2022-09-25T04:38:02;11.70;99.90
10296;DHT22;5193;51.032;6.356;2022-09-25T04:40:28;11.70;99.90
10296;DHT22;5193;51.032;6.356;2022-09-25T04:43:00;11.70;99.90
10296;DHT22;5193;51.032;6.356;2022-09-25T04:45:27;11.70;99.90
10296;DHT22;5193;51.032;6.356;2022-09-25T04:47:53;11.70;99.90
10296;DHT22;5193;51.032;6.356;2022-09-25T04:50:22;11.60;99.90
10296;DHT22;5193;51.032;6.356;2022-09-25T04:52:49;11.60;99.90
10296;DHT22;5193;51.032;6.356;2022-09-25T04:55:19;11.60;99.90
10296;DHT22;5193;51.032;6.356;2022-09-25T04:57:56;11.60;99.90
10296;DHT22;5193;51.032;6.356;2022-09-25T05:00:24;11.60;99.90
10296;DHT22;5193;51.032;6.356;2022-09-25T05:02:50;11.60;99.90
10296;DHT22;5193;51.032;6.356;2022-09-25T05:05:16;11.60;99.90
10296;DHT22;5193;51.032;6.356;2022-09-25T05:07:52;11.60;99.90
10296;DHT22;5193;51.032;6.356;2022-09-25T05:10:19;11.50;99.90
10296;DHT22;5193;51.032;6.356;2022-09-25T05:12:45;11.50;99.90
10296;DHT22;5193;51.032;6.356;2022-09-25T05:15:12;11.50;99.90
10296;DHT22;5193;51.032;6.356;2022-09-25T05:17:38;11.50;99.90
10296;DHT22;5193;51.032;6.356;2022-09-25T05:20:03;11.50;99.90
10296;DHT22;5193;51.032;6.356;2022-09-25T05:22:29;11.50;99.90
10296;DHT22;5193;51.032;6.356;2022-09-25T05:24:55;11.50;99.90
10296;DHT22;5193;51.032;6.356;2022-09-25T05:27:20;11.50;99.90
10296;DHT22;5193;51.032;6.356;2022-09-25T05:29:47;11.40;99.90
10296;DHT22;5193;51.032;6.356;2022-09-25T05:32:14;11.40;99.90
10296;DHT22;5193;51.032;6.356;2022-09-25T05:34:40;11.40;99.90
10296;DHT22;5193;51.032;6.356;2022-09-25T05:37:05;11.50;99.90
10296;DHT22;5193;51.032;6.356;2022-09-25T05:39:31;11.40;99.90
10296;DHT22;5193;51.032;6.356;2022-09-25T05:41:57;11.40;99.90
10296;DHT22;5193;51.032;6.356;2022-09-25T05:44:22;11.40;99.90
10296;DHT22;5193;51.032;6.356;2022-09-25T05:46:49;11.40;99.90
10296;DHT22;5193;51.032;6.356;2022-09-25T05:49:15;11.40;99.90
10296;DHT22;5193;51.032;6.356;2022-09-25T05:51:40;11.40;99.90
10296;DHT22;5193;51.032;6.356;2022-09-25T05:54:06;11.40;99.90
10296;DHT22;5193;51.032;6.356;2022-09-25T05:56:32;11.30;99.90
10296;DHT22;5193;51.032;6.356;2022-09-25T05:58:57;11.40;99.90
10296;DHT22;5193;51.032;6.356;2022-09-25T06:01:23;11.40;99.90
10296;DHT22;5193;51.032;6.356;2022-09-25T06:03:49;11.30;99.90
10296;DHT22;5193;51.032;6.356;2022-09-25T06:06:14;11.40;99.90
10296;DHT22;5193;51.032;6.356;2022-09-25T06:08:40;11.40;99.90
10296;DHT22;5193;51.032;6.356;2022-09-25T06:11:06;11.40;99.90
10296;DHT22;5193;51.032;6.356;2022-09-25T06:13:32;11.40;99.90
10296;DHT22;5193;51.032;6.356;2022-09-25T06:15:59;11.40;99.90
10296;DHT22;5193;51.032;6.356;2022-09-25T06:18:25;11.40;99.90
10296;DHT22;5193;51.032;6.356;2022-09-25T06:20:57;11.40;99.90
10296;DHT22;5193;51.032;6.356;2022-09-25T06:23:23;11.40;99.90
10296;DHT22;5193;51.032;6.356;2022-09-25T06:25:48;11.40;99.90
10296;DHT22;5193;51.032;6.356;2022-09-25T06:28:14;11.40;99.90
10296;DHT22;5193;51.032;6.356;2022-09-25T06:30:39;11.50;99.90
10296;DHT22;5193;51.032;6.356;2022-09-25T06:33:08;11.50;99.90
10296;DHT22;5193;51.032;6.356;2022-09-25T06:35:44;11.50;99.90
10296;DHT22;5193;51.032;6.356;2022-09-25T06:38:10;11.50;99.90
10296;DHT22;5193;51.032;6.356;2022-09-25T06:40:36;11.50;99.90
10296;DHT22;5193;51.032;6.356;2022-09-25T06:43:07;11.50;99.90
10296;DHT22;5193;51.032;6.356;2022-09-25T06:45:33;11.50;99.90
10296;DHT22;5193;51.032;6.356;2022-09-25T06:48:00;11.50;99.90
10296;DHT22;5193;51.032;6.356;2022-09-25T06:50:30;11.50;99.90
10296;DHT22;5193;51.032;6.356;2022-09-25T06:52:58;11.40;99.90
10296;DHT22;5193;51.032;6.356;2022-09-25T06:55:24;11.50;99.90
10296;DHT22;5193;51.032;6.356;2022-09-25T06:57:49;11.40;99.90
10296;DHT22;5193;51.032;6.356;2022-09-25T07:00:15;11.40;99.90
10296;DHT22;5193;51.032;6.356;2022-09-25T07:02:41;11.40;99.90
10296;DHT22;5193;51.032;6.356;2022-09-25T07:05:25;11.40;99.90
10296;DHT22;5193;51.032;6.356;2022-09-25T07:07:51;11.30;99.90
10296;DHT22;5193;51.032;6.356;2022-09-25T07:10:18;11.30;99.90
10296;DHT22;5193;51.032;6.356;2022-09-25T07:12:43;11.30;99.90
10296;DHT22;5193;51.032;6.356;2022-09-25T07:15:09;11.20;99.90
10296;DHT22;5193;51.032;6.356;2022-09-25T07:17:36;11.20;99.90
10296;DHT22;5193;51.032;6.356;2022-09-25T07:20:05;11.20;99.90
10296;DHT22;5193;51.032;6.356;2022-09-25T07:22:32;11.20;99.90
10296;DHT22;5193;51.032;6.356;2022-09-25T07:24:58;11.20;99.90
10296;DHT22;5193;51.032;6.356;2022-09-25T07:27:23;11.30;99.90
10296;DHT22;5193;51.032;6.356;2022-09-25T07:29:50;11.30;99.90
10296;DHT22;5193;51.032;6.356;2022-09-25T07:32:16;11.40;99.90
10296;DHT22;5193;51.032;6.356;2022-09-25T07:34:42;11.50;99.90
10296;DHT22;5193;51.032;6.356;2022-09-25T07:37:07;11.50;99.90
10296;DHT22;5193;51.032;6.356;2022-09-25T07:39:33;11.60;99.90
10296;DHT22;5193;51.032;6.356;2022-09-25T07:41:59;11.70;99.90
10296;DHT22;5193;51.032;6.356;2022-09-25T07:44:24;11.60;99.90
10296;DHT22;5193;51.032;6.356;2022-09-25T07:46:50;11.90;99.90
10296;DHT22;5193;51.032;6.356;2022-09-25T07:49:16;11.90;99.90
10296;DHT22;5193;51.032;6.356;2022-09-25T07:51:41;12.00;99.90
10296;DHT22;5193;51.032;6.356;2022-09-25T07:54:07;12.10;99.90
10296;DHT22;5193;51.032;6.356;2022-09-25T07:56:33;12.10;99.90
10296;DHT22;5193;51.032;6.356;2022-09-25T07:58:59;12.10;99.90
10296;DHT22;5193;51.032;6.356;2022-09-25T08:01:24;12.20;99.90
10296;DHT22;5193;51.032;6.356;2022-09-25T08:03:50;12.30;99.90
10296;DHT22;5193;51.032;6.356;2022-09-25T08:06:15;12.30;99.90
10296;DHT22;5193;51.032;6.356;2022-09-25T08:08:42;12.60;99.90
10296;DHT22;5193;51.032;6.356;2022-09-25T08:11:13;12.40;99.90
10296;DHT22;5193;51.032;6.356;2022-09-25T08:13:40;12.50;99.90
10296;DHT22;5193;51.032;6.356;2022-09-25T08:16:08;12.60;99.90
10296;DHT22;5193;51.032;6.356;2022-09-25T08:18:36;12.70;99.90
10296;DHT22;5193;51.032;6.356;2022-09-25T08:21:03;13.10;99.90
10296;DHT22;5193;51.032;6.356;2022-09-25T08:23:30;12.70;99.90
10296;DHT22;5193;51.032;6.356;2022-09-25T08:25:56;12.80;99.90
10296;DHT22;5193;51.032;6.356;2022-09-25T08:28:22;12.90;99.90
10296;DHT22;5193;51.032;6.356;2022-09-25T08:30:48;12.90;99.90
10296;DHT22;5193;51.032;6.356;2022-09-25T08:33:13;13.00;99.90
10296;DHT22;5193;51.032;6.356;2022-09-25T08:35:39;13.00;99.90
10296;DHT22;5193;51.032;6.356;2022-09-25T08:38:06;14.10;99.90
10296;DHT22;5193;51.032;6.356;2022-09-25T08:40:33;13.10;99.90
10296;DHT22;5193;51.032;6.356;2022-09-25T08:42:59;13.20;99.90
10296;DHT22;5193;51.032;6.356;2022-09-25T08:45:34;13.40;99.90
10296;DHT22;5193;51.032;6.356;2022-09-25T08:48:28;13.50;99.90
10296;DHT22;5193;51.032;6.356;2022-09-25T08:51:13;13.50;99.90
10296;DHT22;5193;51.032;6.356;2022-09-25T08:53:39;13.50;99.90
10296;DHT22;5193;51.032;6.356;2022-09-25T08:56:11;13.50;99.90
10296;DHT22;5193;51.032;6.356;2022-09-25T08:58:53;13.50;99.90
10296;DHT22;5193;51.032;6.356;2022-09-25T09:01:24;13.50;99.90
10296;DHT22;5193;51.032;6.356;2022-09-25T09:04:01;13.50;99.90
10296;DHT22;5193;51.032;6.356;2022-09-25T09:06:30;13.60;99.90
10296;DHT22;5193;51.032;6.356;2022-09-25T09:09:27;13.70;99.90
10296;DHT22;5193;51.032;6.356;2022-09-25T09:12:04;13.80;99.90
10296;DHT22;5193;51.032;6.356;2022-09-25T09:14:37;14.00;99.90
10296;DHT22;5193;51.032;6.356;2022-09-25T09:17:11;14.00;99.90
10296;DHT22;5193;51.032;6.356;2022-09-25T09:19:44;14.00;99.90
10296;DHT22;5193;51.032;6.356;2022-09-25T09:22:12;14.10;99.90
10296;DHT22;5193;51.032;6.356;2022-09-25T09:25:01;14.30;99.90
10296;DHT22;5193;51.032;6.356;2022-09-25T09:30:21;14.60;99.90
10296;DHT22;5193;51.032;6.356;2022-09-25T09:35:46;14.70;99.90
10296;DHT22;5193;51.032;6.356;2022-09-25T09:38:35;14.80;99.90
10296;DHT22;5193;51.032;6.356;2022-09-25T09:41:16;14.90;99.90
10296;DHT22;5193;51.032;6.356;2022-09-25T09:49:56;14.80;99.90
10296;DHT22;5193;51.032;6.356;2022-09-25T09:52:28;14.90;99.90
10296;DHT22;5193;51.032;6.356;2022-09-25T09:57:48;14.80;99.90
10296;DHT22;5193;51.032;6.356;2022-09-25T10:00:17;14.80;99.90
10296;DHT22;5193;51.032;6.356;2022-09-25T10:03:03;14.80;99.90
10296;DHT22;5193;51.032;6.356;2022-09-25T10:05:45;15.00;99.90
10296;DHT22;5193;51.032;6.356;2022-09-25T10:08:12;15.10;99.90
10296;DHT22;5193;51.032;6.356;2022-09-25T10:10:40;15.30;99.90
10296;DHT22;5193;51.032;6.356;2022-09-25T10:13:24;15.50;99.90
10296;DHT22;5193;51.032;6.356;2022-09-25T10:15:55;15.60;99.90
10296;DHT22;5193;51.032;6.356;2022-09-25T10:18:27;15.50;99.90
10296;DHT22;5193;51.032;6.356;2022-09-25T10:21:04;15.40;99.90
10296;DHT22;5193;51.032;6.356;2022-09-25T10:26:40;15.30;99.90
10296;DHT22;5193;51.032;6.356;2022-09-25T10:31:38;15.50;99.90
10296;DHT22;5193;51.032;6.356;2022-09-25T10:36:48;15.60;99.90
10296;DHT22;5193;51.032;6.356;2022-09-25T10:39:35;15.70;99.90
10296;DHT22;5193;51.032;6.356;2022-09-25T10:42:05;15.80;99.90
10296;DHT22;5193;51.032;6.356;2022-09-25T10:44:54;15.80;99.90
10296;DHT22;5193;51.032;6.356;2022-09-25T10:50:22;15.90;99.90
10296;DHT22;5193;51.032;6.356;2022-09-25T10:52:52;15.90;99.90
10296;DHT22;5193;51.032;6.356;2022-09-25T10:55:41;16.10;99.90
10296;DHT22;5193;51.032;6.356;2022-09-25T11:00:43;16.30;99.90
10296;DHT22;5193;51.032;6.356;2022-09-25T11:03:21;16.40;99.90
10296;DHT22;5193;51.032;6.356;2022-09-25T11:05:53;16.40;99.90
10296;DHT22;5193;51.032;6.356;2022-09-25T11:08:23;16.30;99.90
10296;DHT22;5193;51.032;6.356;2022-09-25T11:10:52;16.20;99.90
10296;DHT22;5193;51.032;6.356;2022-09-25T11:13:24;16.10;99.90
10296;DHT22;5193;51.032;6.356;2022-09-25T11:15:56;16.00;99.90
10296;DHT22;5193;51.032;6.356;2022-09-25T11:18:50;16.20;99.90
10296;DHT22;5193;51.032;6.356;2022-09-25T11:21:29;16.20;99.90
10296;DHT22;5193;51.032;6.356;2022-09-25T11:26:42;16.30;99.90
10296;DHT22;5193;51.032;6.356;2022-09-25T11:32:02;16.50;99.90
10296;DHT22;5193;51.032;6.356;2022-09-25T11:37:07;16.30;99.90
10296;DHT22;5193;51.032;6.356;2022-09-25T11:39:41;16.40;99.90
10296;DHT22;5193;51.032;6.356;2022-09-25T11:42:32;16.50;99.90
10296;DHT22;5193;51.032;6.356;2022-09-25T11:48:17;16.90;99.90
10296;DHT22;5193;51.032;6.356;2022-09-25T11:51:03;16.70;99.90
10296;DHT22;5193;51.032;6.356;2022-09-25T11:53:55;16.70;99.90
10296;DHT22;5193;51.032;6.356;2022-09-25T12:00:25;16.30;99.90
10296;DHT22;5193;51.032;6.356;2022-09-25T12:24:00;16.70;99.90
10296;DHT22;5193;51.032;6.356;2022-09-25T12:30:07;16.50;99.90
10296;DHT22;5193;51.032;6.356;2022-09-25T12:33:10;16.60;99.90
10296;DHT22;5193;51.032;6.356;2022-09-25T12:36:29;16.60;99.90
10296;DHT22;5193;51.032;6.356;2022-09-25T12:42:09;16.90;99.90
10296;DHT22;5193;51.032;6.356;2022-09-25T12:44:49;16.90;99.90
10296;DHT22;5193;51.032;6.356;2022-09-25T12:47:44;17.10;99.90
10296;DHT22;5193;51.032;6.356;2022-09-25T12:50:26;17.30;99.90
10296;DHT22;5193;51.032;6.356;2022-09-25T12:53:00;18.10;99.90
10296;DHT22;5193;51.032;6.356;2022-09-25T12:55:34;17.70;99.90
10296;DHT22;5193;51.032;6.356;2022-09-25T12:58:17;17.80;99.90
10296;DHT22;5193;51.032;6.356;2022-09-25T13:00:54;18.00;99.90
10296;DHT22;5193;51.032;6.356;2022-09-25T13:06:10;18.20;99.90
10296;DHT22;5193;51.032;6.356;2022-09-25T13:08:45;18.20;99.90
10296;DHT22;5193;51.032;6.356;2022-09-25T13:14:01;18.00;99.90
10296;DHT22;5193;51.032;6.356;2022-09-25T13:16:27;18.10;99.90
10296;DHT22;5193;51.032;6.356;2022-09-25T13:21:47;18.00;99.90
10296;DHT22;5193;51.032;6.356;2022-09-25T13:24:14;18.00;99.90
10296;DHT22;5193;51.032;6.356;2022-09-25T13:26:48;18.00;99.90
10296;DHT22;5193;51.032;6.356;2022-09-25T13:29:34;18.10;99.90
10296;DHT22;5193;51.032;6.356;2022-09-25T13:32:19;18.10;99.90
10296;DHT22;5193;51.032;6.356;2022-09-25T13:34:51;18.10;99.90
10296;DHT22;5193;51.032;6.356;2022-09-25T13:37:24;18.20;99.90
10296;DHT22;5193;51.032;6.356;2022-09-25T13:39:51;18.20;99.90
10296;DHT22;5193;51.032;6.356;2022-09-25T13:42:38;18.40;99.90
10296;DHT22;5193;51.032;6.356;2022-09-25T13:45:30;18.40;99.90
10296;DHT22;5193;51.032;6.356;2022-09-25T13:48:01;18.40;99.90
10296;DHT22;5193;51.032;6.356;2022-09-25T13:50:39;18.30;99.90
10296;DHT22;5193;51.032;6.356;2022-09-25T13:58:25;18.50;99.90
10296;DHT22;5193;51.032;6.356;2022-09-25T14:00:53;18.50;99.90
10296;DHT22;5193;51.032;6.356;2022-09-25T14:03:42;18.50;99.90
10296;DHT22;5193;51.032;6.356;2022-09-25T14:06:22;18.30;99.90
10296;DHT22;5193;51.032;6.356;2022-09-25T14:08:50;18.10;99.90
10296;DHT22;5193;51.032;6.356;2022-09-25T14:11:25;18.00;99.90
10296;DHT22;5193;51.032;6.356;2022-09-25T14:13:52;18.00;99.90
10296;DHT22;5193;51.032;6.356;2022-09-25T14:16:27;17.90;99.90
10296;DHT22;5193;51.032;6.356;2022-09-25T14:18:56;17.80;99.90
10296;DHT22;5193;51.032;6.356;2022-09-25T14:21:23;17.70;99.90
10296;DHT22;5193;51.032;6.356;2022-09-25T14:23:55;17.70;99.90
10296;DHT22;5193;51.032;6.356;2022-09-25T14:26:24;17.70;99.90
10296;DHT22;5193;51.032;6.356;2022-09-25T14:28:52;17.60;99.90
10296;DHT22;5193;51.032;6.356;2022-09-25T14:47:29;17.40;99.90
10296;DHT22;5193;51.032;6.356;2022-09-25T14:49:57;17.30;99.90
10296;DHT22;5193;51.032;6.356;2022-09-25T14:52:25;17.40;99.90
10296;DHT22;5193;51.032;6.356;2022-09-25T14:54:54;17.40;99.90
10296;DHT22;5193;51.032;6.356;2022-09-25T14:57:30;17.50;99.90
10296;DHT22;5193;51.032;6.356;2022-09-25T15:00:01;17.50;99.90
10296;DHT22;5193;51.032;6.356;2022-09-25T15:02:37;17.50;99.90
10296;DHT22;5193;51.032;6.356;2022-09-25T15:07:42;17.80;99.90
10296;DHT22;5193;51.032;6.356;2022-09-25T15:10:29;17.70;99.90
10296;DHT22;5193;51.032;6.356;2022-09-25T15:13:14;17.80;99.90
10296;DHT22;5193;51.032;6.356;2022-09-25T15:15:41;17.80;99.90
10296;DHT22;5193;51.032;6.356;2022-09-25T15:18:27;17.80;99.90
10296;DHT22;5193;51.032;6.356;2022-09-25T15:20:53;17.70;99.90
10296;DHT22;5193;51.032;6.356;2022-09-25T15:23:20;17.00;99.90
10296;DHT22;5193;51.032;6.356;2022-09-25T15:25:52;17.40;99.90
10296;DHT22;5193;51.032;6.356;2022-09-25T15:28:21;17.20;99.90
10296;DHT22;5193;51.032;6.356;2022-09-25T15:30:59;17.20;99.90
10296;DHT22;5193;51.032;6.356;2022-09-25T15:33:33;17.20;99.90
10296;DHT22;5193;51.032;6.356;2022-09-25T15:36:01;17.10;99.90
10296;DHT22;5193;51.032;6.356;2022-09-25T15:38:33;17.10;99.90
10296;DHT22;5193;51.032;6.356;2022-09-25T15:40:59;17.10;99.90
10296;DHT22;5193;51.032;6.356;2022-09-25T15:43:24;17.20;99.90
10296;DHT22;5193;51.032;6.356;2022-09-25T15:48:32;17.20;99.90
10296;DHT22;5193;51.032;6.356;2022-09-25T15:51:01;17.10;99.90
10296;DHT22;5193;51.032;6.356;2022-09-25T15:53:30;17.10;99.90
10296;DHT22;5193;51.032;6.356;2022-09-25T15:56:20;17.10;99.90
10296;DHT22;5193;51.032;6.356;2022-09-25T15:59:15;17.00;99.90
10296;DHT22;5193;51.032;6.356;2022-09-25T16:01:35;16.90;99.90
10296;DHT22;5193;51.032;6.356;2022-09-25T16:04:22;16.80;99.90
10296;DHT22;5193;51.032;6.356;2022-09-25T16:14:55;16.40;99.90
10296;DHT22;5193;51.032;6.356;2022-09-25T16:17:30;16.30;99.90
10296;DHT22;5193;51.032;6.356;2022-09-25T16:19:59;16.30;99.90
10296;DHT22;5193;51.032;6.356;2022-09-25T16:22:25;16.30;99.90
10296;DHT22;5193;51.032;6.356;2022-09-25T16:24:52;16.30;99.90
10296;DHT22;5193;51.032;6.356;2022-09-25T16:27:31;16.30;99.90
10296;DHT22;5193;51.032;6.356;2022-09-25T16:29:59;16.20;99.90
10296;DHT22;5193;51.032;6.356;2022-09-25T16:32:26;16.10;99.90
10296;DHT22;5193;51.032;6.356;2022-09-25T16:34:56;16.10;99.90
10296;DHT22;5193;51.032;6.356;2022-09-25T16:37:26;16.00;99.90
10296;DHT22;5193;51.032;6.356;2022-09-25T16:40:19;16.00;99.90
10296;DHT22;5193;51.032;6.356;2022-09-25T16:42:45;15.90;99.90
10296;DHT22;5193;51.032;6.356;2022-09-25T16:45:28;15.80;99.90
10296;DHT22;5193;51.032;6.356;2022-09-25T16:47:56;15.80;99.90
10296;DHT22;5193;51.032;6.356;2022-09-25T16:50:24;15.70;99.90
10296;DHT22;5193;51.032;6.356;2022-09-25T16:52:50;15.60;99.90
10296;DHT22;5193;51.032;6.356;2022-09-25T16:55:21;15.60;99.90
10296;DHT22;5193;51.032;6.356;2022-09-25T16:57:49;15.50;99.90
10296;DHT22;5193;51.032;6.356;2022-09-25T17:00:26;15.50;99.90
10296;DHT22;5193;51.032;6.356;2022-09-25T17:02:53;15.30;99.90
10296;DHT22;5193;51.032;6.356;2022-09-25T17:05:21;15.30;99.90
10296;DHT22;5193;51.032;6.356;2022-09-25T17:07:50;15.20;99.90
10296;DHT22;5193;51.032;6.356;2022-09-25T17:10:21;15.20;99.90
10296;DHT22;5193;51.032;6.356;2022-09-25T17:12:48;15.10;99.90
10296;DHT22;5193;51.032;6.356;2022-09-25T17:15:30;15.00;99.90
10296;DHT22;5193;51.032;6.356;2022-09-25T17:17:57;14.90;99.90
10296;DHT22;5193;51.032;6.356;2022-09-25T17:20:26;14.90;99.90
10296;DHT22;5193;51.032;6.356;2022-09-25T17:22:53;14.80;99.90
10296;DHT22;5193;51.032;6.356;2022-09-25T17:25:43;14.70;99.90
10296;DHT22;5193;51.032;6.356;2022-09-25T17:28:10;14.60;99.90
10296;DHT22;5193;51.032;6.356;2022-09-25T17:30:37;14.60;99.90
10296;DHT22;5193;51.032;6.356;2022-09-25T17:33:03;14.50;99.90
10296;DHT22;5193;51.032;6.356;2022-09-25T17:35:58;14.40;99.90
10296;DHT22;5193;51.032;6.356;2022-09-25T17:38:25;14.40;99.90
10296;DHT22;5193;51.032;6.356;2022-09-25T17:40:52;14.30;99.90
10296;DHT22;5193;51.032;6.356;2022-09-25T17:43:18;14.30;99.90
10296;DHT22;5193;51.032;6.356;2022-09-25T17:45:53;14.30;99.90
10296;DHT22;5193;51.032;6.356;2022-09-25T17:48:22;14.20;99.90
10296;DHT22;5193;51.032;6.356;2022-09-25T17:51:17;14.20;99.90
10296;DHT22;5193;51.032;6.356;2022-09-25T17:53:44;14.10;99.90
10296;DHT22;5193;51.032;6.356;2022-09-25T17:56:10;14.10;99.90
10296;DHT22;5193;51.032;6.356;2022-09-25T17:58:37;14.00;99.90
10296;DHT22;5193;51.032;6.356;2022-09-25T18:01:12;14.00;99.90
10296;DHT22;5193;51.032;6.356;2022-09-25T18:03:38;13.90;99.90
10296;DHT22;5193;51.032;6.356;2022-09-25T18:06:04;13.80;99.90
10296;DHT22;5193;51.032;6.356;2022-09-25T18:08:29;13.80;99.90
10296;DHT22;5193;51.032;6.356;2022-09-25T18:10:56;13.70;99.90
10296;DHT22;5193;51.032;6.356;2022-09-25T18:13:23;14.00;99.90
10296;DHT22;5193;51.032;6.356;2022-09-25T18:15:52;13.60;99.90
10296;DHT22;5193;51.032;6.356;2022-09-25T18:18:20;13.80;99.90
10296;DHT22;5193;51.032;6.356;2022-09-25T18:20:46;13.50;99.90
10296;DHT22;5193;51.032;6.356;2022-09-25T18:23:30;13.50;99.90
10296;DHT22;5193;51.032;6.356;2022-09-25T18:26:04;13.40;99.90
10296;DHT22;5193;51.032;6.356;2022-09-25T18:28:30;13.40;99.90
10296;DHT22;5193;51.032;6.356;2022-09-25T18:30:57;13.40;99.90
10296;DHT22;5193;51.032;6.356;2022-09-25T18:33:23;13.30;99.90
10296;DHT22;5193;51.032;6.356;2022-09-25T18:35:50;13.40;99.90
10296;DHT22;5193;51.032;6.356;2022-09-25T18:38:16;13.30;99.90
10296;DHT22;5193;51.032;6.356;2022-09-25T18:40:41;13.20;99.90
10296;DHT22;5193;51.032;6.356;2022-09-25T18:43:08;13.30;99.90